createdAt,value
2018-12-03T00:00:20.681Z,48.50
2018-12-03T00:02:50.397Z,48.13
2018-12-03T00:05:18.898Z,50.47
2018-12-03T00:07:47.401Z,44.30
2018-12-03T00:10:15.920Z,43.60
2018-12-03T00:12:44.385Z,41.80
2018-12-03T00:15:12.917Z,39.43
2018-12-03T00:17:41.436Z,38.77
2018-12-03T00:20:10.660Z,38.93
2018-12-03T00:22:39.216Z,43.97
2018-12-03T00:25:08.266Z,40.53
2018-12-03T00:27:36.852Z,38.40
2018-12-03T00:30:08.525Z,32.00
2018-12-03T00:32:37.157Z,26.90
2018-12-03T00:35:07.540Z,33.83
2018-12-03T00:37:36.424Z,28.80
2018-12-03T00:40:06.352Z,33.97
2018-12-03T00:42:34.941Z,34.10
2018-12-03T00:45:03.505Z,33.77
2018-12-03T00:47:31.969Z,35.53
2018-12-03T00:50:00.425Z,34.70
2018-12-03T00:52:28.881Z,34.90
2018-12-03T00:54:57.333Z,37.47
2018-12-03T00:57:25.793Z,39.43
2018-12-03T00:59:54.245Z,41.20
2018-12-03T01:02:24.690Z,36.60
2018-12-03T01:04:53.576Z,31.87
2018-12-03T01:07:22.344Z,34.50
2018-12-03T01:09:50.828Z,34.53
2018-12-03T01:12:19.296Z,33.10
2018-12-03T01:14:47.777Z,32.20
2018-12-03T01:17:16.236Z,29.63
2018-12-03T01:19:44.699Z,27.77
2018-12-03T01:22:13.194Z,29.07
2018-12-03T01:24:41.757Z,20.30
2018-12-03T01:27:10.217Z,23.60
2018-12-03T01:29:38.749Z,18.80
2018-12-03T01:32:07.223Z,20.93
2018-12-03T01:34:35.678Z,21.60
2018-12-03T01:37:04.156Z,18.87
2018-12-03T01:39:32.662Z,25.37
2018-12-03T01:42:01.137Z,14.67
2018-12-03T01:44:29.591Z,16.30
2018-12-03T01:46:58.068Z,16.30
2018-12-03T01:49:26.530Z,15.50
2018-12-03T01:51:54.988Z,15.20
2018-12-03T01:54:23.461Z,17.10
2018-12-03T01:56:51.922Z,15.47
2018-12-03T01:59:20.388Z,11.90
2018-12-03T02:01:58.731Z,16.83
2018-12-03T02:04:27.180Z,8.40
2018-12-03T02:06:55.641Z,17.30
2018-12-03T02:09:24.141Z,22.60
2018-12-03T02:11:52.617Z,23.60
2018-12-03T02:14:21.072Z,20.90
2018-12-03T02:16:49.578Z,19.17
2018-12-03T02:19:18.062Z,19.33
2018-12-03T02:21:46.524Z,14.10
2018-12-03T02:24:14.984Z,7.00
2018-12-03T02:26:43.445Z,2.50
2018-12-03T02:29:11.896Z,7.77
2018-12-03T02:31:40.349Z,8.40
2018-12-03T02:34:08.812Z,16.93
2018-12-03T02:36:37.269Z,16.93
2018-12-03T02:39:08.125Z,25.37
2018-12-03T02:41:36.808Z,19.23
2018-12-03T02:44:05.521Z,21.47
2018-12-03T02:46:34.039Z,20.90
2018-12-03T02:49:02.513Z,19.93
2018-12-03T02:51:30.985Z,15.67
2018-12-03T02:53:59.459Z,19.87
2018-12-03T02:56:27.980Z,19.73
2018-12-03T02:58:56.413Z,18.10
2018-12-03T03:01:24.965Z,13.87
2018-12-03T03:03:53.445Z,18.73
2018-12-03T03:06:21.904Z,17.60
2018-12-03T03:08:50.379Z,17.50
2018-12-03T03:11:18.858Z,14.17
2018-12-03T03:13:47.336Z,14.03
2018-12-03T03:16:15.810Z,14.53
2018-12-03T03:18:44.268Z,22.23
2018-12-03T03:21:12.725Z,14.07
2018-12-03T03:23:41.193Z,14.57
2018-12-03T03:26:09.661Z,12.83
2018-12-03T03:28:38.116Z,16.47
2018-12-03T03:31:06.634Z,11.33
2018-12-03T03:33:35.124Z,11.80
2018-12-03T03:36:03.680Z,15.17
2018-12-03T03:38:32.157Z,12.50
2018-12-03T03:41:00.621Z,10.80
2018-12-03T03:43:29.073Z,14.07
2018-12-03T03:45:57.553Z,10.27
2018-12-03T03:48:26.017Z,8.77
2018-12-03T03:50:54.525Z,6.83
2018-12-03T03:53:23.020Z,8.27
2018-12-03T03:55:51.493Z,4.50
2018-12-03T03:58:19.943Z,6.90
2018-12-03T04:00:48.522Z,9.83
2018-12-03T04:03:16.981Z,8.80
2018-12-03T04:05:45.436Z,9.87
2018-12-03T04:08:13.881Z,7.87
2018-12-03T04:10:42.367Z,4.43
2018-12-03T04:13:10.833Z,3.57
2018-12-03T04:15:39.369Z,3.20
2018-12-03T04:18:07.824Z,3.87
2018-12-03T04:20:36.280Z,9.57
2018-12-03T04:23:04.896Z,13.23
2018-12-03T04:25:33.460Z,19.23
2018-12-03T04:28:01.918Z,16.77
2018-12-03T04:30:30.389Z,17.33
2018-12-03T04:32:58.905Z,18.00
2018-12-03T04:35:28.196Z,26.70
2018-12-03T04:37:56.696Z,13.23
2018-12-03T04:40:25.166Z,12.63
2018-12-03T04:42:53.613Z,13.37
2018-12-03T04:45:22.071Z,14.00
2018-12-03T04:47:50.914Z,11.13
2018-12-03T04:50:20.544Z,8.57
2018-12-03T04:52:49.005Z,12.03
2018-12-03T04:55:18.533Z,11.27
2018-12-03T04:57:47.004Z,10.67
2018-12-03T05:00:16.414Z,8.83
2018-12-03T05:02:45.877Z,9.87
2018-12-03T05:05:14.362Z,11.60
2018-12-03T05:07:42.842Z,10.57
2018-12-03T05:10:15.629Z,14.20
2018-12-03T05:12:45.212Z,12.33
2018-12-03T05:15:14.198Z,9.70
2018-12-03T05:17:43.093Z,12.67
2018-12-03T05:20:17.013Z,13.03
2018-12-03T05:22:45.485Z,9.77
2018-12-03T05:25:19.118Z,11.87
2018-12-03T05:27:42.549Z,13.20
2018-12-03T05:30:13.129Z,12.13
2018-12-03T05:32:42.308Z,10.77
2018-12-03T05:35:13.751Z,10.63
2018-12-03T05:37:42.212Z,10.77
2018-12-03T05:40:18.060Z,12.20
2018-12-03T05:42:46.636Z,17.30
2018-12-03T05:45:15.108Z,11.33
2018-12-03T05:47:43.573Z,14.30
2018-12-03T05:50:14.272Z,12.73
2018-12-03T05:52:43.440Z,11.37
2018-12-03T05:55:13.000Z,7.37
2018-12-03T05:57:41.635Z,8.40
2018-12-03T06:00:19.319Z,13.00
2018-12-03T06:02:47.820Z,13.10
2018-12-03T06:05:16.750Z,12.40
2018-12-03T06:07:45.242Z,14.73
2018-12-03T06:10:20.661Z,9.60
2018-12-03T06:12:52.148Z,6.33
2018-12-03T06:15:21.243Z,7.80
2018-12-03T06:17:51.308Z,6.30
2018-12-03T06:20:20.606Z,6.83
2018-12-03T06:22:50.300Z,6.00
2018-12-03T06:25:22.479Z,5.40
2018-12-03T06:27:50.944Z,5.77
2018-12-03T06:30:20.902Z,7.40
2018-12-03T06:32:49.434Z,4.93
2018-12-03T06:35:18.356Z,5.20
2018-12-03T06:37:47.235Z,4.30
2018-12-03T06:40:16.953Z,5.80
2018-12-03T06:42:45.477Z,6.00
2018-12-03T06:45:18.152Z,5.97
2018-12-03T06:47:54.268Z,11.40
2018-12-03T06:50:22.748Z,6.97
2018-12-03T06:52:51.213Z,6.20
2018-12-03T06:55:19.693Z,7.20
2018-12-03T06:57:48.195Z,7.20
2018-12-03T07:00:17.997Z,8.30
2018-12-03T07:02:46.530Z,7.93
2018-12-03T07:05:15.029Z,11.70
2018-12-03T07:07:44.557Z,13.50
2018-12-03T07:10:15.332Z,15.10
2018-12-03T07:12:44.345Z,15.23
2018-12-03T07:15:15.753Z,14.80
2018-12-03T07:17:44.208Z,11.40
2018-12-03T07:20:13.493Z,12.87
2018-12-03T07:22:42.146Z,12.60
2018-12-03T07:25:11.685Z,11.57
2018-12-03T07:27:40.196Z,10.50
2018-12-03T07:30:24.501Z,12.90
2018-12-03T07:32:53.365Z,14.40
2018-12-03T07:35:22.736Z,6.40
2018-12-03T07:37:53.470Z,6.33
2018-12-03T07:40:21.965Z,5.80
2018-12-03T07:42:50.431Z,6.17
2018-12-03T07:45:19.861Z,6.00
2018-12-03T07:47:48.426Z,5.20
2018-12-03T07:50:17.833Z,8.07
2018-12-03T07:52:46.358Z,5.83
2018-12-03T07:55:16.213Z,5.87
2018-12-03T07:58:01.277Z,8.43
2018-12-03T08:00:31.733Z,14.67
2018-12-03T08:03:00.197Z,16.00
2018-12-03T08:05:28.692Z,12.90
2018-12-03T08:07:57.172Z,12.50
2018-12-03T08:10:25.641Z,10.10
2018-12-03T08:12:54.230Z,12.60
2018-12-03T08:15:22.702Z,10.30
2018-12-03T08:17:56.716Z,10.30
2018-12-03T08:20:37.693Z,11.17
2018-12-03T08:23:09.552Z,8.67
2018-12-03T08:25:38.543Z,8.20
2018-12-03T08:28:07.100Z,9.47
2018-12-03T08:30:35.544Z,8.97
2018-12-03T08:33:04.045Z,8.63
2018-12-03T08:35:32.649Z,25.60
2018-12-03T08:38:03.411Z,9.50
2018-12-03T08:40:29.658Z,9.60
2018-12-03T08:42:58.128Z,9.80
2018-12-03T08:45:26.752Z,11.20
2018-12-03T08:47:55.226Z,7.90
2018-12-03T08:50:26.077Z,12.87
2018-12-03T08:52:55.532Z,12.50
2018-12-03T08:55:23.999Z,10.87
2018-12-03T08:57:52.485Z,12.20
2018-12-03T09:00:25.681Z,11.83
2018-12-03T09:03:03.613Z,13.90
2018-12-03T09:05:37.527Z,11.37
2018-12-03T09:08:07.527Z,12.50
2018-12-03T09:10:36.117Z,13.47
2018-12-03T09:13:11.221Z,13.77
2018-12-03T09:16:09.616Z,17.07
2018-12-03T09:18:37.174Z,9.63
2018-12-03T09:21:07.771Z,8.43
2018-12-03T09:23:35.361Z,9.47
2018-12-03T09:26:02.859Z,10.00
2018-12-03T09:28:33.389Z,10.50
2018-12-03T09:31:00.865Z,11.00
2018-12-03T09:33:28.353Z,10.20
2018-12-03T09:35:55.829Z,14.27
2018-12-03T09:38:23.309Z,12.50
2018-12-03T09:40:55.523Z,11.07
2018-12-03T09:43:22.993Z,11.37
2018-12-03T09:45:50.478Z,14.70
2018-12-03T09:48:17.953Z,14.40
2018-12-03T09:50:45.437Z,23.03
2018-12-03T09:53:12.988Z,25.37
2018-12-03T09:55:40.477Z,22.43
2018-12-03T09:58:07.961Z,30.50
2018-12-03T10:00:35.521Z,18.57
2018-12-03T10:03:03.005Z,16.93
2018-12-03T10:05:30.486Z,21.00
2018-12-03T10:07:57.970Z,10.93
2018-12-03T10:10:25.561Z,12.57
2018-12-03T10:12:53.034Z,11.20
2018-12-03T10:15:22.641Z,13.80
2018-12-03T10:17:50.121Z,15.77
2018-12-03T10:20:17.618Z,18.43
2018-12-03T10:22:47.090Z,17.70
2018-12-03T10:25:14.566Z,21.20
2018-12-03T10:27:42.045Z,16.30
2018-12-03T10:30:11.817Z,17.27
2018-12-03T10:32:39.369Z,15.37
2018-12-03T10:35:07.294Z,15.70
2018-12-03T10:37:34.779Z,11.23
2018-12-03T10:40:02.420Z,15.03
2018-12-03T10:42:29.913Z,10.33
2018-12-03T10:44:57.396Z,11.33
2018-12-03T10:47:24.877Z,13.10
2018-12-03T10:49:52.361Z,9.20
2018-12-03T10:52:19.834Z,9.97
2018-12-03T10:54:47.389Z,12.23
2018-12-03T10:57:14.863Z,8.03
2018-12-03T10:59:46.569Z,7.33
2018-12-03T11:02:16.021Z,6.90
2018-12-03T11:04:43.640Z,8.73
2018-12-03T11:07:11.272Z,7.13
2018-12-03T11:09:38.745Z,7.53
2018-12-03T11:12:06.573Z,8.27
2018-12-03T11:14:34.121Z,6.77
2018-12-03T11:17:01.746Z,7.83
2018-12-03T11:19:29.221Z,7.10
2018-12-03T11:21:57.177Z,8.47
2018-12-03T11:24:24.649Z,11.10
2018-12-03T11:26:52.125Z,8.20
2018-12-03T11:29:20.160Z,10.53
2018-12-03T11:31:47.884Z,8.97
2018-12-03T11:34:19.181Z,9.53
2018-12-03T11:36:46.732Z,14.37
2018-12-03T11:39:15.254Z,12.83
2018-12-03T11:41:42.800Z,9.00
2018-12-03T11:44:10.346Z,7.40
2018-12-03T11:46:37.822Z,5.87
2018-12-03T11:49:05.461Z,5.23
2018-12-03T11:51:32.944Z,6.80
2018-12-03T11:54:00.429Z,7.00
2018-12-03T11:56:27.905Z,6.20
2018-12-03T11:58:55.381Z,7.50
2018-12-03T12:01:22.937Z,7.17
2018-12-03T12:03:50.408Z,6.90
2018-12-03T12:06:17.892Z,5.73
2018-12-03T12:08:45.363Z,7.23
2018-12-03T12:11:12.841Z,6.40
2018-12-03T12:13:40.324Z,7.00
2018-12-03T12:16:07.797Z,5.23
2018-12-03T12:18:35.264Z,5.70
2018-12-03T12:21:02.748Z,3.43
2018-12-03T12:23:30.248Z,3.37
2018-12-03T12:25:57.800Z,4.27
2018-12-03T12:28:25.270Z,5.43
2018-12-03T12:30:52.745Z,4.27
2018-12-03T12:33:20.225Z,4.23
2018-12-03T12:35:47.701Z,7.83
2018-12-03T12:38:15.184Z,9.33
2018-12-03T12:40:42.665Z,3.03
2018-12-03T12:43:10.137Z,4.93
2018-12-03T12:45:37.609Z,4.70
2018-12-03T12:48:05.236Z,3.53
2018-12-03T12:50:32.718Z,2.70
2018-12-03T12:53:00.212Z,3.07
2018-12-03T12:55:27.702Z,4.07
2018-12-03T12:57:55.177Z,3.00
2018-12-03T13:00:22.649Z,3.93
2018-12-03T13:02:50.122Z,5.43
2018-12-03T13:05:17.725Z,3.27
2018-12-03T13:07:45.203Z,3.43
2018-12-03T13:10:12.953Z,3.90
2018-12-03T13:12:40.477Z,4.70
2018-12-03T13:15:08.300Z,3.80
2018-12-03T13:17:35.777Z,4.10
2018-12-03T13:20:04.519Z,2.70
2018-12-03T13:22:33.845Z,3.80
2018-12-03T13:25:01.317Z,3.13
2018-12-03T13:27:28.793Z,3.47
2018-12-03T13:29:56.270Z,4.97
2018-12-03T13:32:23.749Z,3.60
2018-12-03T13:34:51.225Z,4.67
2018-12-03T13:37:19.081Z,3.53
2018-12-03T13:39:46.557Z,3.60
2018-12-03T13:42:14.038Z,2.40
2018-12-03T13:44:43.524Z,4.53
2018-12-03T13:47:11.024Z,3.20
2018-12-03T13:49:38.493Z,2.67
2018-12-03T13:52:06.121Z,2.43
2018-12-03T13:54:33.617Z,4.70
2018-12-03T13:57:01.097Z,3.20
2018-12-03T13:59:28.589Z,3.27
2018-12-03T14:01:56.072Z,4.80
2018-12-03T14:04:23.576Z,4.03
2018-12-03T14:06:51.087Z,3.70
2018-12-03T14:09:18.660Z,4.17
2018-12-03T14:11:46.321Z,6.23
2018-12-03T14:14:13.814Z,5.77
2018-12-03T14:16:42.758Z,11.07
2018-12-03T14:19:10.605Z,4.30
2018-12-03T14:21:39.410Z,8.10
2018-12-03T14:24:10.838Z,4.73
2018-12-03T14:26:38.324Z,4.73
2018-12-03T14:29:05.829Z,3.47
2018-12-03T14:31:33.301Z,5.30
2018-12-03T14:34:00.772Z,5.50
2018-12-03T14:36:28.252Z,6.97
2018-12-03T14:38:55.740Z,3.70
2018-12-03T14:41:23.221Z,4.63
2018-12-03T14:43:50.809Z,3.63
2018-12-03T14:46:18.317Z,4.17
2018-12-03T14:48:45.809Z,4.00
2018-12-03T14:51:13.364Z,3.20
2018-12-03T14:53:40.865Z,6.00
2018-12-03T14:56:08.344Z,2.73
2018-12-03T14:58:35.824Z,3.10
2018-12-03T15:01:03.473Z,7.77
2018-12-03T15:03:30.954Z,12.70
2018-12-03T15:05:58.427Z,4.93
2018-12-03T15:08:25.902Z,4.57
2018-12-03T15:10:53.377Z,4.00
2018-12-03T15:13:20.857Z,3.83
2018-12-03T15:15:48.337Z,4.77
2018-12-03T15:18:15.820Z,4.67
2018-12-03T15:20:43.292Z,3.47
2018-12-03T15:23:10.773Z,5.30
2018-12-03T15:25:38.249Z,5.70
2018-12-03T15:28:05.725Z,8.00
2018-12-03T15:30:33.197Z,8.93
2018-12-03T15:33:00.669Z,5.97
2018-12-03T15:35:28.144Z,5.00
2018-12-03T15:37:55.625Z,7.30
2018-12-03T15:40:23.121Z,4.60
2018-12-03T15:42:50.697Z,5.67
2018-12-03T15:45:18.181Z,7.43
2018-12-03T15:47:45.668Z,6.10
2018-12-03T15:50:13.254Z,4.07
2018-12-03T15:52:40.738Z,5.57
2018-12-03T15:55:08.313Z,7.00
2018-12-03T15:57:35.792Z,4.10
2018-12-03T16:00:04.241Z,4.50
2018-12-03T16:02:31.757Z,6.03
2018-12-03T16:04:59.232Z,5.30
2018-12-03T16:07:26.701Z,4.83
2018-12-03T16:09:54.179Z,4.93
2018-12-03T16:12:21.661Z,7.23
2018-12-03T16:14:49.133Z,5.70
2018-12-03T16:17:20.187Z,5.10
2018-12-03T16:19:46.105Z,12.43
2018-12-03T16:22:13.585Z,14.43
2018-12-03T16:24:41.053Z,9.07
2018-12-03T16:27:08.545Z,14.53
2018-12-03T16:29:36.031Z,16.30
2018-12-03T16:32:03.512Z,15.67
2018-12-03T16:34:31.009Z,10.87
2018-12-03T16:36:58.490Z,8.40
2018-12-03T16:39:25.972Z,10.57
2018-12-03T16:41:53.445Z,7.70
2018-12-03T16:44:20.926Z,10.63
2018-12-03T16:46:48.400Z,7.90
2018-12-03T16:49:15.881Z,9.80
2018-12-03T16:51:43.360Z,8.83
2018-12-03T16:54:10.832Z,7.70
2018-12-03T16:56:38.314Z,7.20
2018-12-03T16:59:05.811Z,11.27
2018-12-03T17:01:33.293Z,8.10
2018-12-03T17:04:00.773Z,8.47
2018-12-03T17:06:28.265Z,10.50
2018-12-03T17:08:55.771Z,13.90
2018-12-03T17:11:23.269Z,11.60
2018-12-03T17:13:50.770Z,10.60
2018-12-03T17:16:18.245Z,14.30
2018-12-03T17:18:45.742Z,10.27
2018-12-03T17:21:13.312Z,10.30
2018-12-03T17:23:40.824Z,9.53
2018-12-03T17:26:08.361Z,14.20
2018-12-03T17:28:35.844Z,30.63
2018-12-03T17:31:03.313Z,9.80
2018-12-03T17:33:30.793Z,9.60
2018-12-03T17:35:58.281Z,13.50
2018-12-03T17:38:25.842Z,14.17
2018-12-03T17:40:53.401Z,11.80
2018-12-03T17:43:20.881Z,19.23
2018-12-03T17:45:48.373Z,25.67
2018-12-03T17:48:15.866Z,15.60
2018-12-03T17:50:43.409Z,9.87
2018-12-03T17:53:10.889Z,18.77
2018-12-03T17:55:38.372Z,19.63
2018-12-03T17:58:05.853Z,9.50
2018-12-03T18:00:33.340Z,9.20
2018-12-03T18:03:00.820Z,10.60
2018-12-03T18:05:28.302Z,10.00
2018-12-03T18:07:55.789Z,18.17
2018-12-03T18:10:23.268Z,17.67
2018-12-03T18:12:50.757Z,22.00
2018-12-03T18:15:18.568Z,29.53
2018-12-03T18:17:46.049Z,17.00
2018-12-03T18:20:13.537Z,16.07
2018-12-03T18:22:41.029Z,9.20
2018-12-03T18:25:08.506Z,12.87
2018-12-03T18:27:35.986Z,11.70
2018-12-03T18:30:04.961Z,6.33
2018-12-03T18:32:32.438Z,12.80
2018-12-03T18:34:59.921Z,14.67
2018-12-03T18:37:27.400Z,16.30
2018-12-03T18:39:54.889Z,25.77
2018-12-03T18:42:22.377Z,27.90
2018-12-03T18:44:49.857Z,19.87
2018-12-03T18:47:17.362Z,21.17
2018-12-03T18:49:44.924Z,14.60
2018-12-03T18:52:12.417Z,19.33
2018-12-03T18:54:39.909Z,14.03
2018-12-03T18:57:07.396Z,12.90
2018-12-03T18:59:34.885Z,9.10
2018-12-03T19:02:02.377Z,9.77
2018-12-03T19:04:29.927Z,7.60
2018-12-03T19:06:57.733Z,7.00
2018-12-03T19:09:25.285Z,7.20
2018-12-03T19:11:52.757Z,7.37
2018-12-03T19:14:20.245Z,8.60
2018-12-03T19:16:47.721Z,4.60
2018-12-03T19:19:15.205Z,5.40
2018-12-03T19:21:42.687Z,6.27
2018-12-03T19:24:10.173Z,10.90
2018-12-03T19:26:37.657Z,14.73
2018-12-03T19:29:05.144Z,10.97
2018-12-03T19:31:32.629Z,11.13
2018-12-03T19:34:00.105Z,9.70
2018-12-03T19:36:27.635Z,14.43
2018-12-03T19:38:55.133Z,14.50
2018-12-03T19:41:22.616Z,17.97
2018-12-03T19:43:50.094Z,11.33
2018-12-03T19:46:17.589Z,15.00
2018-12-03T19:48:45.088Z,21.97
2018-12-03T19:51:12.579Z,19.67
2018-12-03T19:53:40.060Z,20.87
2018-12-03T19:56:07.551Z,19.03
2018-12-03T19:58:35.079Z,14.67
2018-12-03T20:01:02.634Z,13.20
2018-12-03T20:03:30.125Z,15.83
2018-12-03T20:05:57.617Z,15.93
2018-12-03T20:08:25.098Z,12.80
2018-12-03T20:10:52.581Z,16.20
2018-12-03T20:13:20.287Z,16.90
2018-12-03T20:15:47.824Z,14.07
2018-12-03T20:18:15.350Z,10.40
2018-12-03T20:20:42.842Z,13.00
2018-12-03T20:23:10.325Z,9.10
2018-12-03T20:25:37.809Z,13.00
2018-12-03T20:28:07.496Z,10.50
2018-12-03T20:30:37.322Z,17.60
2018-12-03T20:33:04.801Z,19.30
2018-12-03T20:35:32.689Z,25.33
2018-12-03T20:38:00.261Z,23.43
2018-12-03T20:40:27.826Z,27.10
2018-12-03T20:42:55.389Z,39.37
2018-12-03T20:45:32.406Z,25.13
2018-12-03T20:47:59.889Z,18.37
2018-12-03T20:50:27.465Z,18.83
2018-12-03T20:52:54.945Z,17.20
2018-12-03T20:55:22.987Z,17.87
2018-12-03T20:57:50.622Z,20.83
2018-12-03T21:00:18.105Z,17.93
2018-12-03T21:02:45.745Z,15.00
2018-12-03T21:05:13.228Z,15.37
2018-12-03T21:07:40.696Z,12.77
2018-12-03T21:10:08.174Z,11.17
2018-12-03T21:12:35.679Z,13.57
2018-12-03T21:15:03.306Z,11.33
2018-12-03T21:17:30.778Z,11.47
2018-12-03T21:19:58.409Z,13.50
2018-12-03T21:22:25.886Z,3.60
2018-12-03T21:24:53.366Z,4.97
2018-12-03T21:27:20.841Z,7.07
2018-12-03T21:29:48.314Z,9.17
2018-12-03T21:32:15.797Z,12.30
2018-12-03T21:34:43.281Z,13.90
2018-12-03T21:37:10.753Z,11.63
2018-12-03T21:39:38.254Z,14.67
2018-12-03T21:42:05.732Z,8.47
2018-12-03T21:44:33.205Z,6.67
2018-12-03T21:47:00.690Z,7.07
2018-12-03T21:49:28.169Z,7.00
2018-12-03T21:51:55.648Z,8.30
2018-12-03T21:54:23.138Z,7.47
2018-12-03T21:56:50.620Z,7.53
2018-12-03T21:59:18.108Z,6.47
2018-12-03T22:01:45.584Z,6.80
2018-12-03T22:04:13.063Z,9.97
2018-12-03T22:06:40.549Z,6.20
2018-12-03T22:09:08.029Z,8.27
2018-12-03T22:11:35.517Z,8.73
2018-12-03T22:14:03.025Z,8.13
2018-12-03T22:16:30.582Z,15.73
2018-12-03T22:18:58.066Z,7.67
2018-12-03T22:21:25.546Z,11.83
2018-12-03T22:23:53.025Z,13.03
2018-12-03T22:26:20.504Z,16.63
2018-12-03T22:28:47.990Z,15.17
2018-12-03T22:31:15.468Z,18.63
2018-12-03T22:33:42.953Z,14.70
2018-12-03T22:36:10.512Z,13.90
2018-12-03T22:38:38.002Z,10.40
2018-12-03T22:41:05.481Z,10.60
2018-12-03T22:43:32.969Z,13.47
2018-12-03T22:46:00.447Z,14.50
2018-12-03T22:48:27.937Z,12.07
2018-12-03T22:50:55.414Z,13.20
2018-12-03T22:53:22.892Z,11.80
2018-12-03T22:55:50.373Z,12.47
2018-12-03T22:58:17.850Z,8.90
2018-12-03T23:00:47.969Z,9.00
2018-12-03T23:03:15.448Z,6.10
2018-12-03T23:05:42.925Z,8.77
2018-12-03T23:08:10.401Z,7.17
2018-12-03T23:10:37.876Z,5.63
2018-12-03T23:13:05.366Z,9.13
2018-12-03T23:15:32.852Z,2.10
2018-12-03T23:18:00.324Z,5.80
2018-12-03T23:20:27.805Z,10.00
2018-12-03T23:22:55.281Z,8.23
2018-12-03T23:25:22.768Z,10.07
2018-12-03T23:27:50.244Z,10.33
2018-12-03T23:30:17.721Z,5.83
2018-12-03T23:32:45.201Z,6.30
2018-12-03T23:35:12.685Z,4.90
2018-12-03T23:37:40.165Z,3.60
2018-12-03T23:40:07.725Z,2.93
2018-12-03T23:42:35.197Z,2.10
2018-12-03T23:45:02.673Z,6.87
2018-12-03T23:47:30.145Z,5.00
2018-12-03T23:49:57.626Z,7.50
2018-12-03T23:52:25.101Z,5.27
2018-12-03T23:54:52.577Z,5.93
2018-12-03T23:57:20.056Z,10.10
2018-12-03T23:59:47.529Z,5.20
